Thursday, September 18, 2014
05:45 UTC
  |  Log In   |  Register Free
Airport Search:

Jackson-Evers International Airport
(KJAN)

FAA data valid effective July 24, 2014 until September 18, 2014 (unless otherwise noted).

 
 
 
 
 
 
 
 
 
 
 
 
 
 

Current Aviation Weather for Jackson-Evers International Airport (KJAN)

The most recent METAR observation for KJAN was updated at: 0515
METAR Summary (Translated METAR)
KJAN
180454Z 04003KT 10SM CLR 23/21 A2992 RMK AO2 SLP128 T02280211
KHKS
180453Z AUTO 00000KT 10SM CLR 24/21 A2992 RMK AO2 SLP124 T02390211
(7.6 nm NW from KJAN)
KJVW
180455Z AUTO 00000KT 9SM CLR 23/20 A2992 RMK AO2
(16.9 nm SW from KJAN)
TAF Summary (Translated TAF)
KJAN
171721Z 1718/1818 VRB04KT P6SM SCT050 FM180000 VRB02KT P6SM FEW250 FM181500 VRB03KT P6SM SCT040
KHKS
(7.6 nm NW from KJAN)
171721Z 1718/1818 VRB04KT P6SM SCT050 FM180000 VRB02KT P6SM FEW250 FM181500 VRB03KT P6SM SCT040
  Airport Weather Conditions for KJAN

 Current Weather at JAN
73° F
Fair
Southeast winds at 4.6 mph
JAN NOAA Radar

Pressure: 29.93 in
Humidity: 90%
Wind: Southeast at 4.6 MPH (4 KT)
Dew Point: 70.0°F
Visibility: 10.00 mi


Airport Weather Forecast for KJAN

Translated METAR and TAF for KJAN
Translated METAR for KJAN (0540 UTC 18 September 2014)
found at http://aviationweather.gov/adds/metars/
 
METAR text: KJAN 180454Z 04003KT 10SM CLR 23/21 A2992 RMK AO2 SLP128 T02280211
Conditions at: KJAN (JACKSON , MS, US) observed 0454 UTC 18 September 2014
Temperature: 22.8°C (73°F)
Dewpoint: 21.1°C (70°F) [RH = 90%]
Pressure (altimeter): 29.92 inches Hg (1013.3 mb)
[Sea-level pressure: 1012.8 mb]
Winds: from the NE (40 degrees) at 3 MPH (3 knots; 1.6 m/s)
Visibility: 10 or more miles (16+ km)
Ceiling: at least 12,000 feet AGL
Clouds: sky clear below 12,000 feet AGL
Weather: no significant weather observed at this time
Translated TAF for KJAN
Forecast for: KJAN (JACKSON , MS, US)
TAF Text: KJAN 180520Z 1806/1906 06003KT P6SM BKN250
Forecast period: 0600 UTC 18 September 2014 to 0600 UTC 19 September 2014
Forecast type: FROM: standard forecast or significant change
Winds: from the ENE (60 degrees) at 3 MPH (3 knots; 1.6 m/s)
Visibility: 6 or more miles (10+ km)
Ceiling: 25000 feet AGL
Clouds: broken clouds at 25000 feet AGL
Weather: no significant weather forecast for this period

Find All Airport Services Find A Hotel Find A Rental Car Find A Golf Course Find A Restaurant $100 Hamburger



FBO's on the Field
FBO Company Facility Photos Services Transportation Aviation Fuel Prices: Prices include tax
Catering Weather Repair Courtesy Rental Type 100LL JetA JetA+ MOGAS 8087
 
Atlantic Aviation

This FBO has not yet been rated
FS:Chevron
Last Updated: Sep-17
Login to update fuel prices
SS:
Contact Atlantic AviationMore FBO Information
 
Add another FBO Facility Photos Catering Weather Repair Courtesy Rental Type 100LL JetA JetA+ MOGAS 8087
Services Transportation Aviation Fuel Prices: Prices include tax


model-print
model-print
model-print
model-print